sensor_id;sensor_type;location;lat;lon;timestamp;pressure;altitude;pressure_sealevel;temperature;humidity
23616;BME280;11985;49.404;7.734;2023-05-07T00:04:46;97219.81;;;12.36;100.00
23616;BME280;11985;49.404;7.734;2023-05-07T00:09:50;97215.28;;;12.43;100.00
23616;BME280;11985;49.404;7.734;2023-05-07T00:14:51;97222.19;;;12.44;100.00
23616;BME280;11985;49.404;7.734;2023-05-07T00:19:53;97211.63;;;12.44;100.00
23616;BME280;11985;49.404;7.734;2023-05-07T00:24:57;97213.38;;;12.50;100.00
23616;BME280;11985;49.404;7.734;2023-05-07T00:29:59;97216.03;;;12.50;100.00
23616;BME280;11985;49.404;7.734;2023-05-07T00:35:00;97214.13;;;12.57;100.00
23616;BME280;11985;49.404;7.734;2023-05-07T00:40:06;97213.38;;;12.68;100.00
23616;BME280;11985;49.404;7.734;2023-05-07T00:45:10;97209.56;;;12.64;100.00
23616;BME280;11985;49.404;7.734;2023-05-07T00:50:12;97208.03;;;12.57;100.00
23616;BME280;11985;49.404;7.734;2023-05-07T00:55:16;97207.00;;;12.58;100.00
23616;BME280;11985;49.404;7.734;2023-05-07T01:00:18;97208.75;;;12.46;100.00
23616;BME280;11985;49.404;7.734;2023-05-07T01:05:23;97206.91;;;12.28;100.00
23616;BME280;11985;49.404;7.734;2023-05-07T01:10:28;97197.47;;;12.13;100.00
23616;BME280;11985;49.404;7.734;2023-05-07T01:15:30;97201.41;;;12.04;100.00
23616;BME280;11985;49.404;7.734;2023-05-07T01:20:33;97197.44;;;11.95;100.00
23616;BME280;11985;49.404;7.734;2023-05-07T01:25:36;97198.47;;;11.94;100.00
23616;BME280;11985;49.404;7.734;2023-05-07T01:30:41;97193.84;;;11.89;100.00
23616;BME280;11985;49.404;7.734;2023-05-07T01:35:47;97192.66;;;11.79;100.00
23616;BME280;11985;49.404;7.734;2023-05-07T01:40:52;97193.19;;;11.62;100.00
23616;BME280;11985;49.404;7.734;2023-05-07T01:45:56;97182.75;;;11.49;100.00
23616;BME280;11985;49.404;7.734;2023-05-07T01:50:59;97193.13;;;11.37;100.00
23616;BME280;11985;49.404;7.734;2023-05-07T01:56:04;97183.47;;;11.25;100.00
23616;BME280;11985;49.404;7.734;2023-05-07T02:01:06;97189.03;;;11.17;100.00
23616;BME280;11985;49.404;7.734;2023-05-07T02:06:08;97188.22;;;11.09;100.00
23616;BME280;11985;49.404;7.734;2023-05-07T02:11:12;97190.31;;;11.01;100.00
23616;BME280;11985;49.404;7.734;2023-05-07T02:16:14;97193.16;;;10.93;100.00
23616;BME280;11985;49.404;7.734;2023-05-07T02:21:16;97195.25;;;10.84;100.00
23616;BME280;11985;49.404;7.734;2023-05-07T02:26:20;97182.28;;;10.76;100.00
23616;BME280;11985;49.404;7.734;2023-05-07T02:31:22;97198.13;;;10.69;100.00
23616;BME280;11985;49.404;7.734;2023-05-07T02:36:23;97201.38;;;10.65;100.00
23616;BME280;11985;49.404;7.734;2023-05-07T02:41:28;97194.53;;;10.57;100.00
23616;BME280;11985;49.404;7.734;2023-05-07T02:46:29;97190.88;;;10.51;100.00
23616;BME280;11985;49.404;7.734;2023-05-07T02:51:31;97184.41;;;10.47;100.00
23616;BME280;11985;49.404;7.734;2023-05-07T02:56:35;97191.28;;;10.48;100.00
23616;BME280;11985;49.404;7.734;2023-05-07T03:01:36;97179.56;;;10.51;100.00
23616;BME280;11985;49.404;7.734;2023-05-07T03:06:38;97178.94;;;10.49;100.00
23616;BME280;11985;49.404;7.734;2023-05-07T03:11:41;97177.13;;;10.49;100.00
23616;BME280;11985;49.404;7.734;2023-05-07T03:16:42;97169.81;;;10.51;100.00
23616;BME280;11985;49.404;7.734;2023-05-07T03:21:44;97164.56;;;10.51;100.00
23616;BME280;11985;49.404;7.734;2023-05-07T03:26:47;97168.63;;;10.47;100.00
23616;BME280;11985;49.404;7.734;2023-05-07T03:31:48;97167.19;;;10.51;100.00
23616;BME280;11985;49.404;7.734;2023-05-07T03:36:50;97166.94;;;10.60;100.00
23616;BME280;11985;49.404;7.734;2023-05-07T03:41:55;97174.84;;;10.60;100.00
23616;BME280;11985;49.404;7.734;2023-05-07T03:46:56;97162.31;;;10.62;100.00
23616;BME280;11985;49.404;7.734;2023-05-07T03:51:58;97161.28;;;10.63;100.00
23616;BME280;11985;49.404;7.734;2023-05-07T03:57:03;97171.03;;;10.55;100.00
23616;BME280;11985;49.404;7.734;2023-05-07T04:02:05;97178.75;;;10.50;100.00
23616;BME280;11985;49.404;7.734;2023-05-07T04:07:07;97170.22;;;10.48;100.00
23616;BME280;11985;49.404;7.734;2023-05-07T04:12:11;97174.25;;;10.57;100.00
23616;BME280;11985;49.404;7.734;2023-05-07T04:17:13;97176.25;;;10.69;100.00
23616;BME280;11985;49.404;7.734;2023-05-07T04:22:16;97176.19;;;10.82;100.00
23616;BME280;11985;49.404;7.734;2023-05-07T04:27:18;97187.53;;;10.89;100.00
23616;BME280;11985;49.404;7.734;2023-05-07T04:32:20;97178.16;;;10.93;100.00
23616;BME280;11985;49.404;7.734;2023-05-07T04:37:22;97181.97;;;11.10;100.00
23616;BME280;11985;49.404;7.734;2023-05-07T04:42:25;97182.41;;;11.32;100.00
23616;BME280;11985;49.404;7.734;2023-05-07T04:47:27;97185.97;;;11.51;100.00
23616;BME280;11985;49.404;7.734;2023-05-07T04:52:29;97188.16;;;11.54;100.00
23616;BME280;11985;49.404;7.734;2023-05-07T04:57:32;97186.19;;;11.50;100.00
23616;BME280;11985;49.404;7.734;2023-05-07T05:02:34;97199.75;;;11.53;100.00
23616;BME280;11985;49.404;7.734;2023-05-07T05:07:37;97207.81;;;11.58;100.00
23616;BME280;11985;49.404;7.734;2023-05-07T05:12:40;97211.81;;;11.68;100.00
23616;BME280;11985;49.404;7.734;2023-05-07T05:17:42;97217.06;;;11.74;100.00
23616;BME280;11985;49.404;7.734;2023-05-07T05:22:43;97217.84;;;11.81;100.00
23616;BME280;11985;49.404;7.734;2023-05-07T05:27:47;97215.31;;;11.93;100.00
23616;BME280;11985;49.404;7.734;2023-05-07T05:32:49;97211.56;;;12.07;100.00
23616;BME280;11985;49.404;7.734;2023-05-07T05:37:51;97215.84;;;12.27;100.00
23616;BME280;11985;49.404;7.734;2023-05-07T05:42:54;97216.91;;;12.62;100.00
23616;BME280;11985;49.404;7.734;2023-05-07T05:47:56;97209.41;;;12.96;100.00
23616;BME280;11985;49.404;7.734;2023-05-07T05:52:58;97218.22;;;13.08;100.00
23616;BME280;11985;49.404;7.734;2023-05-07T05:58:01;97220.50;;;13.05;100.00
23616;BME280;11985;49.404;7.734;2023-05-07T06:03:03;97227.03;;;13.02;100.00
23616;BME280;11985;49.404;7.734;2023-05-07T06:08:05;97212.78;;;13.03;100.00
23616;BME280;11985;49.404;7.734;2023-05-07T06:13:08;97218.34;;;13.13;100.00
23616;BME280;11985;49.404;7.734;2023-05-07T06:18:10;97218.47;;;13.37;100.00
23616;BME280;11985;49.404;7.734;2023-05-07T06:23:11;97218.13;;;13.63;100.00
23616;BME280;11985;49.404;7.734;2023-05-07T06:28:16;97219.56;;;13.89;100.00
23616;BME280;11985;49.404;7.734;2023-05-07T06:33:18;97228.34;;;14.13;100.00
23616;BME280;11985;49.404;7.734;2023-05-07T06:38:23;97237.81;;;14.33;100.00
23616;BME280;11985;49.404;7.734;2023-05-07T06:43:27;97233.31;;;14.45;100.00
23616;BME280;11985;49.404;7.734;2023-05-07T06:48:29;97224.81;;;14.66;100.00
23616;BME280;11985;49.404;7.734;2023-05-07T06:53:32;97236.09;;;14.73;100.00
23616;BME280;11985;49.404;7.734;2023-05-07T06:58:36;97243.88;;;14.92;100.00
23616;BME280;11985;49.404;7.734;2023-05-07T07:03:38;97244.84;;;15.26;100.00
23616;BME280;11985;49.404;7.734;2023-05-07T07:08:40;97251.44;;;15.52;100.00
23616;BME280;11985;49.404;7.734;2023-05-07T07:13:43;97242.19;;;15.54;100.00
23616;BME280;11985;49.404;7.734;2023-05-07T07:18:44;97250.03;;;15.61;100.00
23616;BME280;11985;49.404;7.734;2023-05-07T07:23:46;97248.25;;;15.78;100.00
23616;BME280;11985;49.404;7.734;2023-05-07T07:28:50;97259.41;;;15.80;100.00
23616;BME280;11985;49.404;7.734;2023-05-07T07:33:52;97255.34;;;15.90;100.00
23616;BME280;11985;49.404;7.734;2023-05-07T07:38:53;97253.72;;;15.89;100.00
23616;BME280;11985;49.404;7.734;2023-05-07T07:43:56;97257.22;;;16.06;100.00
23616;BME280;11985;49.404;7.734;2023-05-07T07:48:58;97254.56;;;16.23;100.00
23616;BME280;11985;49.404;7.734;2023-05-07T07:54:00;97250.13;;;16.28;99.17
23616;BME280;11985;49.404;7.734;2023-05-07T07:59:04;97254.94;;;16.31;98.95
23616;BME280;11985;49.404;7.734;2023-05-07T08:04:06;97251.31;;;16.37;99.38
23616;BME280;11985;49.404;7.734;2023-05-07T08:09:08;97259.53;;;16.53;97.96
23616;BME280;11985;49.404;7.734;2023-05-07T08:14:11;97261.59;;;16.84;98.78
23616;BME280;11985;49.404;7.734;2023-05-07T08:19:13;97256.13;;;17.13;97.49
23616;BME280;11985;49.404;7.734;2023-05-07T08:24:15;97259.63;;;17.19;96.70
23616;BME280;11985;49.404;7.734;2023-05-07T08:29:18;97261.22;;;17.41;95.09
23616;BME280;11985;49.404;7.734;2023-05-07T08:34:21;97270.19;;;17.57;94.23
23616;BME280;11985;49.404;7.734;2023-05-07T08:39:23;97271.75;;;17.75;92.30
23616;BME280;11985;49.404;7.734;2023-05-07T08:44:27;97264.88;;;17.79;90.37
23616;BME280;11985;49.404;7.734;2023-05-07T08:49:29;97272.38;;;17.82;90.48
23616;BME280;11985;49.404;7.734;2023-05-07T08:54:31;97270.16;;;18.33;90.71
23616;BME280;11985;49.404;7.734;2023-05-07T08:59:34;97271.63;;;18.56;87.45
23616;BME280;11985;49.404;7.734;2023-05-07T09:04:37;97271.41;;;18.63;85.48
23616;BME280;11985;49.404;7.734;2023-05-07T09:09:38;97270.47;;;18.79;86.16
23616;BME280;11985;49.404;7.734;2023-05-07T09:14:41;97264.28;;;19.16;83.80
23616;BME280;11985;49.404;7.734;2023-05-07T09:19:43;97253.63;;;19.31;83.07
23616;BME280;11985;49.404;7.734;2023-05-07T09:24:47;97249.75;;;19.69;82.84
23616;BME280;11985;49.404;7.734;2023-05-07T09:29:51;97243.13;;;20.28;79.19
23616;BME280;11985;49.404;7.734;2023-05-07T09:34:52;97244.19;;;20.32;77.64
23616;BME280;11985;49.404;7.734;2023-05-07T09:39:55;97239.91;;;20.77;75.93
23616;BME280;11985;49.404;7.734;2023-05-07T09:44:59;97243.03;;;20.99;73.66
23616;BME280;11985;49.404;7.734;2023-05-07T09:50:02;97240.56;;;21.13;71.79
23616;BME280;11985;49.404;7.734;2023-05-07T09:55:08;97229.53;;;21.25;70.10
23616;BME280;11985;49.404;7.734;2023-05-07T10:00:14;97234.06;;;21.40;69.14
23616;BME280;11985;49.404;7.734;2023-05-07T10:05:16;97231.03;;;21.56;67.89
23616;BME280;11985;49.404;7.734;2023-05-07T10:10:18;97226.09;;;21.74;67.00
23616;BME280;11985;49.404;7.734;2023-05-07T10:15:22;97217.38;;;21.92;66.30
23616;BME280;11985;49.404;7.734;2023-05-07T10:20:24;97223.81;;;22.30;64.35
23616;BME280;11985;49.404;7.734;2023-05-07T10:25:28;97225.78;;;22.20;63.77
23616;BME280;11985;49.404;7.734;2023-05-07T10:30:40;97219.38;;;22.16;61.96
23616;BME280;11985;49.404;7.734;2023-05-07T10:35:46;97220.94;;;22.22;61.72
23616;BME280;11985;49.404;7.734;2023-05-07T10:40:50;97216.06;;;22.53;61.10
23616;BME280;11985;49.404;7.734;2023-05-07T10:46:14;97228.69;;;22.52;60.18
23616;BME280;11985;49.404;7.734;2023-05-07T10:51:21;97224.22;;;22.13;59.59
23616;BME280;11985;49.404;7.734;2023-05-07T10:56:26;97222.38;;;21.65;60.38
23616;BME280;11985;49.404;7.734;2023-05-07T11:01:51;97218.19;;;21.48;62.00
23616;BME280;11985;49.404;7.734;2023-05-07T11:12:48;97230.53;;;21.49;62.92
23616;BME280;11985;49.404;7.734;2023-05-07T11:17:55;97218.81;;;21.35;62.44
23616;BME280;11985;49.404;7.734;2023-05-07T11:22:57;97220.94;;;21.43;64.21
23616;BME280;11985;49.404;7.734;2023-05-07T11:28:04;97219.88;;;21.39;63.73
23616;BME280;11985;49.404;7.734;2023-05-07T11:33:08;97216.16;;;21.30;64.56
23616;BME280;11985;49.404;7.734;2023-05-07T11:38:11;97214.59;;;21.08;65.23
23616;BME280;11985;49.404;7.734;2023-05-07T11:43:14;97221.63;;;20.99;65.51
23616;BME280;11985;49.404;7.734;2023-05-07T11:48:18;97224.91;;;20.71;67.23
23616;BME280;11985;49.404;7.734;2023-05-07T11:53:22;97226.03;;;20.34;72.77
23616;BME280;11985;49.404;7.734;2023-05-07T11:58:25;97234.84;;;19.94;80.17
23616;BME280;11985;49.404;7.734;2023-05-07T12:03:31;97230.13;;;19.28;87.76
23616;BME280;11985;49.404;7.734;2023-05-07T12:08:36;97234.16;;;18.73;94.66
23616;BME280;11985;49.404;7.734;2023-05-07T12:13:37;97245.16;;;18.44;100.00
23616;BME280;11985;49.404;7.734;2023-05-07T12:18:42;97255.09;;;18.17;100.00
23616;BME280;11985;49.404;7.734;2023-05-07T12:23:46;97259.47;;;17.74;100.00
23616;BME280;11985;49.404;7.734;2023-05-07T12:28:48;97271.53;;;17.60;100.00
23616;BME280;11985;49.404;7.734;2023-05-07T12:33:52;97268.78;;;17.50;100.00
23616;BME280;11985;49.404;7.734;2023-05-07T12:38:55;97273.69;;;17.36;100.00
23616;BME280;11985;49.404;7.734;2023-05-07T12:43:57;97253.91;;;17.05;100.00
23616;BME280;11985;49.404;7.734;2023-05-07T12:49:01;97235.47;;;16.81;100.00
23616;BME280;11985;49.404;7.734;2023-05-07T12:54:03;97252.16;;;16.60;100.00
23616;BME280;11985;49.404;7.734;2023-05-07T12:59:05;97239.41;;;16.40;100.00
23616;BME280;11985;49.404;7.734;2023-05-07T13:04:09;97244.09;;;16.16;100.00
23616;BME280;11985;49.404;7.734;2023-05-07T13:09:11;97258.97;;;16.00;100.00
23616;BME280;11985;49.404;7.734;2023-05-07T13:14:13;97252.78;;;15.95;100.00
23616;BME280;11985;49.404;7.734;2023-05-07T13:19:15;97259.09;;;15.77;100.00
23616;BME280;11985;49.404;7.734;2023-05-07T13:24:17;97272.50;;;15.70;100.00
23616;BME280;11985;49.404;7.734;2023-05-07T13:29:19;97321.41;;;15.46;100.00
23616;BME280;11985;49.404;7.734;2023-05-07T13:34:22;97349.53;;;14.71;100.00
23616;BME280;11985;49.404;7.734;2023-05-07T13:39:25;97337.69;;;14.44;100.00
23616;BME280;11985;49.404;7.734;2023-05-07T13:44:26;97330.31;;;14.34;100.00
23616;BME280;11985;49.404;7.734;2023-05-07T13:49:30;97318.56;;;14.42;100.00
23616;BME280;11985;49.404;7.734;2023-05-07T13:54:32;97297.03;;;14.38;100.00
23616;BME280;11985;49.404;7.734;2023-05-07T13:59:33;97287.59;;;14.54;100.00
23616;BME280;11985;49.404;7.734;2023-05-07T14:04:37;97298.09;;;14.61;100.00
23616;BME280;11985;49.404;7.734;2023-05-07T14:09:39;97323.22;;;14.58;100.00
23616;BME280;11985;49.404;7.734;2023-05-07T14:14:40;97324.81;;;14.59;100.00
23616;BME280;11985;49.404;7.734;2023-05-07T14:19:43;97324.69;;;14.54;100.00
23616;BME280;11985;49.404;7.734;2023-05-07T14:24:45;97306.38;;;14.64;100.00
23616;BME280;11985;49.404;7.734;2023-05-07T14:29:47;97298.22;;;14.66;100.00
23616;BME280;11985;49.404;7.734;2023-05-07T14:34:52;97312.63;;;14.58;100.00
23616;BME280;11985;49.404;7.734;2023-05-07T14:39:54;97332.53;;;14.49;100.00
23616;BME280;11985;49.404;7.734;2023-05-07T14:44:56;97342.81;;;14.57;100.00
23616;BME280;11985;49.404;7.734;2023-05-07T14:49:58;97331.88;;;14.77;100.00
23616;BME280;11985;49.404;7.734;2023-05-07T14:55:01;97332.00;;;14.94;100.00
23616;BME280;11985;49.404;7.734;2023-05-07T15:00:03;97317.78;;;15.12;100.00
23616;BME280;11985;49.404;7.734;2023-05-07T15:05:07;97301.34;;;15.26;100.00
23616;BME280;11985;49.404;7.734;2023-05-07T15:10:09;97305.13;;;15.42;100.00
23616;BME280;11985;49.404;7.734;2023-05-07T15:15:11;97303.81;;;15.68;100.00
23616;BME280;11985;49.404;7.734;2023-05-07T15:20:14;97310.53;;;15.88;100.00
23616;BME280;11985;49.404;7.734;2023-05-07T15:25:15;97312.53;;;15.80;100.00
23616;BME280;11985;49.404;7.734;2023-05-07T15:30:17;97313.94;;;15.83;100.00
23616;BME280;11985;49.404;7.734;2023-05-07T15:35:21;97307.34;;;16.02;100.00
23616;BME280;11985;49.404;7.734;2023-05-07T15:40:23;97314.94;;;16.10;100.00
23616;BME280;11985;49.404;7.734;2023-05-07T15:45:25;97316.75;;;16.39;100.00
23616;BME280;11985;49.404;7.734;2023-05-07T15:50:28;97314.66;;;16.74;100.00
23616;BME280;11985;49.404;7.734;2023-05-07T15:55:29;97314.81;;;16.84;100.00
23616;BME280;11985;49.404;7.734;2023-05-07T16:00:31;97322.22;;;16.82;100.00
23616;BME280;11985;49.404;7.734;2023-05-07T16:05:36;97338.47;;;17.03;100.00
23616;BME280;11985;49.404;7.734;2023-05-07T16:10:38;97337.28;;;17.32;100.00
23616;BME280;11985;49.404;7.734;2023-05-07T16:15:40;97344.34;;;17.44;100.00
23616;BME280;11985;49.404;7.734;2023-05-07T16:20:44;97360.16;;;17.72;100.00
23616;BME280;11985;49.404;7.734;2023-05-07T16:25:46;97368.03;;;17.84;100.00
23616;BME280;11985;49.404;7.734;2023-05-07T16:30:48;97364.25;;;18.07;100.00
23616;BME280;11985;49.404;7.734;2023-05-07T16:35:54;97375.13;;;18.27;100.00
23616;BME280;11985;49.404;7.734;2023-05-07T16:40:55;97376.75;;;18.28;100.00
23616;BME280;11985;49.404;7.734;2023-05-07T16:45:57;97377.00;;;18.27;100.00
23616;BME280;11985;49.404;7.734;2023-05-07T16:50:59;97377.84;;;18.05;100.00
23616;BME280;11985;49.404;7.734;2023-05-07T16:56:04;97387.78;;;17.71;100.00
23616;BME280;11985;49.404;7.734;2023-05-07T17:01:05;97392.38;;;17.54;100.00
23616;BME280;11985;49.404;7.734;2023-05-07T17:06:08;97388.56;;;17.45;100.00
23616;BME280;11985;49.404;7.734;2023-05-07T17:11:14;97395.84;;;17.15;100.00
23616;BME280;11985;49.404;7.734;2023-05-07T17:16:15;97386.88;;;16.83;100.00
23616;BME280;11985;49.404;7.734;2023-05-07T17:21:18;97394.94;;;16.71;100.00
23616;BME280;11985;49.404;7.734;2023-05-07T17:26:20;97399.22;;;16.72;100.00
23616;BME280;11985;49.404;7.734;2023-05-07T17:31:21;97391.94;;;16.84;100.00
23616;BME280;11985;49.404;7.734;2023-05-07T17:36:24;97401.19;;;16.99;100.00
23616;BME280;11985;49.404;7.734;2023-05-07T17:41:26;97406.66;;;17.09;100.00
23616;BME280;11985;49.404;7.734;2023-05-07T17:46:28;97407.97;;;17.06;100.00
23616;BME280;11985;49.404;7.734;2023-05-07T17:51:31;97403.81;;;16.94;100.00
23616;BME280;11985;49.404;7.734;2023-05-07T17:56:32;97413.09;;;16.62;100.00
23616;BME280;11985;49.404;7.734;2023-05-07T18:01:34;97414.59;;;16.42;100.00
23616;BME280;11985;49.404;7.734;2023-05-07T18:06:37;97416.91;;;16.21;100.00
23616;BME280;11985;49.404;7.734;2023-05-07T18:11:39;97417.72;;;16.10;100.00
23616;BME280;11985;49.404;7.734;2023-05-07T18:16:40;97420.78;;;16.02;100.00
23616;BME280;11985;49.404;7.734;2023-05-07T18:21:43;97423.88;;;15.99;100.00
23616;BME280;11985;49.404;7.734;2023-05-07T18:26:45;97440.59;;;15.82;100.00
23616;BME280;11985;49.404;7.734;2023-05-07T18:31:48;97444.84;;;15.60;100.00
23616;BME280;11985;49.404;7.734;2023-05-07T18:36:51;97450.75;;;15.62;100.00
23616;BME280;11985;49.404;7.734;2023-05-07T18:41:53;97449.41;;;15.71;100.00
23616;BME280;11985;49.404;7.734;2023-05-07T18:46:55;97456.19;;;15.79;100.00
23616;BME280;11985;49.404;7.734;2023-05-07T18:51:58;97462.56;;;15.66;100.00
23616;BME280;11985;49.404;7.734;2023-05-07T18:57:00;97455.84;;;15.52;100.00
23616;BME280;11985;49.404;7.734;2023-05-07T19:02:02;97454.44;;;15.38;100.00
23616;BME280;11985;49.404;7.734;2023-05-07T19:07:05;97456.53;;;15.24;100.00
23616;BME280;11985;49.404;7.734;2023-05-07T19:12:07;97460.13;;;15.06;100.00
23616;BME280;11985;49.404;7.734;2023-05-07T19:17:08;97456.16;;;14.85;100.00
23616;BME280;11985;49.404;7.734;2023-05-07T19:22:11;97461.31;;;14.80;100.00
23616;BME280;11985;49.404;7.734;2023-05-07T19:27:13;97468.81;;;14.71;100.00
23616;BME280;11985;49.404;7.734;2023-05-07T19:32:14;97471.28;;;14.55;100.00
23616;BME280;11985;49.404;7.734;2023-05-07T19:37:17;97482.94;;;14.65;100.00
23616;BME280;11985;49.404;7.734;2023-05-07T19:42:22;97498.22;;;14.82;100.00
23616;BME280;11985;49.404;7.734;2023-05-07T19:47:23;97503.22;;;14.90;100.00
23616;BME280;11985;49.404;7.734;2023-05-07T19:52:26;97513.88;;;14.71;100.00
23616;BME280;11985;49.404;7.734;2023-05-07T19:57:28;97516.84;;;14.63;100.00
23616;BME280;11985;49.404;7.734;2023-05-07T20:02:29;97525.13;;;14.55;100.00
23616;BME280;11985;49.404;7.734;2023-05-07T20:07:32;97533.81;;;14.44;100.00
23616;BME280;11985;49.404;7.734;2023-05-07T20:12:34;97529.53;;;14.24;100.00
23616;BME280;11985;49.404;7.734;2023-05-07T20:17:35;97535.44;;;14.08;100.00
23616;BME280;11985;49.404;7.734;2023-05-07T20:22:38;97540.34;;;14.05;100.00
23616;BME280;11985;49.404;7.734;2023-05-07T20:27:40;97546.63;;;14.10;100.00
23616;BME280;11985;49.404;7.734;2023-05-07T20:32:42;97550.91;;;14.11;100.00
23616;BME280;11985;49.404;7.734;2023-05-07T20:37:44;97548.81;;;14.13;100.00
23616;BME280;11985;49.404;7.734;2023-05-07T20:42:46;97556.91;;;14.18;100.00
23616;BME280;11985;49.404;7.734;2023-05-07T20:47:48;97559.00;;;14.16;100.00
23616;BME280;11985;49.404;7.734;2023-05-07T20:52:51;97558.22;;;14.09;100.00
23616;BME280;11985;49.404;7.734;2023-05-07T20:57:52;97559.28;;;13.90;100.00
23616;BME280;11985;49.404;7.734;2023-05-07T21:02:54;97555.34;;;13.74;100.00
23616;BME280;11985;49.404;7.734;2023-05-07T21:07:57;97563.78;;;13.64;100.00
23616;BME280;11985;49.404;7.734;2023-05-07T21:12:59;97567.75;;;13.55;100.00
23616;BME280;11985;49.404;7.734;2023-05-07T21:18:00;97571.84;;;13.51;100.00
23616;BME280;11985;49.404;7.734;2023-05-07T21:23:03;97569.63;;;13.48;100.00
23616;BME280;11985;49.404;7.734;2023-05-07T21:28:05;97568.88;;;13.41;100.00
23616;BME280;11985;49.404;7.734;2023-05-07T21:33:07;97576.47;;;13.31;100.00
23616;BME280;11985;49.404;7.734;2023-05-07T21:38:10;97573.09;;;13.24;100.00
23616;BME280;11985;49.404;7.734;2023-05-07T21:43:12;97568.00;;;13.15;100.00
23616;BME280;11985;49.404;7.734;2023-05-07T21:48:16;97577.81;;;13.08;100.00
23616;BME280;11985;49.404;7.734;2023-05-07T21:53:22;97582.34;;;13.01;100.00
23616;BME280;11985;49.404;7.734;2023-05-07T21:58:24;97582.94;;;13.03;100.00
23616;BME280;11985;49.404;7.734;2023-05-07T22:03:26;97581.53;;;13.01;100.00
23616;BME280;11985;49.404;7.734;2023-05-07T22:08:29;97587.66;;;13.01;100.00
23616;BME280;11985;49.404;7.734;2023-05-07T22:13:30;97598.22;;;13.01;100.00
23616;BME280;11985;49.404;7.734;2023-05-07T22:18:32;97596.00;;;12.98;100.00
23616;BME280;11985;49.404;7.734;2023-05-07T22:23:35;97593.34;;;12.98;100.00
23616;BME280;11985;49.404;7.734;2023-05-07T22:28:36;97597.59;;;12.99;100.00
23616;BME280;11985;49.404;7.734;2023-05-07T22:33:38;97599.25;;;13.00;100.00
23616;BME280;11985;49.404;7.734;2023-05-07T22:38:40;97595.81;;;13.00;100.00
23616;BME280;11985;49.404;7.734;2023-05-07T22:43:42;97591.72;;;12.97;100.00
23616;BME280;11985;49.404;7.734;2023-05-07T22:48:44;97584.81;;;12.96;100.00
23616;BME280;11985;49.404;7.734;2023-05-07T22:53:47;97589.31;;;12.95;100.00
23616;BME280;11985;49.404;7.734;2023-05-07T22:58:50;97592.16;;;12.94;100.00
23616;BME280;11985;49.404;7.734;2023-05-07T23:03:52;97597.88;;;12.91;100.00
23616;BME280;11985;49.404;7.734;2023-05-07T23:08:54;97588.91;;;12.92;100.00
23616;BME280;11985;49.404;7.734;2023-05-07T23:13:56;97590.97;;;12.90;100.00
23616;BME280;11985;49.404;7.734;2023-05-07T23:18:57;97590.97;;;12.90;100.00
23616;BME280;11985;49.404;7.734;2023-05-07T23:24:00;97578.94;;;12.94;100.00
23616;BME280;11985;49.404;7.734;2023-05-07T23:29:02;97582.78;;;12.98;100.00
23616;BME280;11985;49.404;7.734;2023-05-07T23:34:04;97584.81;;;12.96;100.00
23616;BME280;11985;49.404;7.734;2023-05-07T23:39:06;97584.25;;;12.94;100.00
23616;BME280;11985;49.404;7.734;2023-05-07T23:44:08;97580.97;;;12.92;100.00
23616;BME280;11985;49.404;7.734;2023-05-07T23:49:10;97590.56;;;12.86;100.00
23616;BME280;11985;49.404;7.734;2023-05-07T23:54:14;97595.50;;;12.76;100.00
23616;BME280;11985;49.404;7.734;2023-05-07T23:59:17;97587.78;;;12.75;100.00
